• Join FlightAware (Why Join?)
  • Login
  • US Flag 
11:50AM EST


 

Airport Tracker/Info


-or-


 

Live Flight TrackerFlight Track Log ✈ THY964 ✈ 12-Jul-2013 ✈ LTBA / IST - LCEN / ECN

Flight Track Log - Related Links

Times and Time Zones

All times are in EDT time to prevent confusion due to time zone crossing. See the THY964 flight status page for this flight to view local times or setup timezone preferences in your user account.

Time Position Orientation Groundspeed Altitude Reporting Facility
EDT Latitude Longitude Course Direction KTS MPH feet Rate Location/Type
04:24PM 40.9710 28.8120 216° Southwest 11 13  Level FlightAware
04:25PM 40.9700 28.8110 217° Southwest 7 8 60 Level FlightAware
04:25PM 40.9700 28.8100 270° West 7 8 60 Level FlightAware
04:26PM 40.9690 28.8070 246° West 8 9 60 Level FlightAware
04:27PM 40.9870 28.8060 358° North 120 138 200 1,320 Climbing FlightAware
04:27PM 41.0090 28.8060 360° North 143 165 1,900 1,800 Climbing FlightAware
04:28PM 41.0250 28.8050 357° North 143 165 1,900 1,800 Level FlightAware
04:28PM 41.0480 28.8060 North 145 167 3,600 2,340 Climbing FlightAware
04:29PM 41.0780 28.8180 17° North 212 244 4,400 1,140 Climbing FlightAware
04:29PM 41.0820 28.8260 56° Northeast 226 260 4,500 1,500 Climbing FlightAware
04:29PM 41.0870 28.8520 76° East 250 288 5,000 1,620 Climbing FlightAware
04:30PM 41.0920 28.8970 82° East 260 299 5,700 1,680 Climbing FlightAware
04:30PM 41.0960 28.9220 78° East 261 300 6,300 2,460 Climbing FlightAware
04:31PM 41.1020 28.9630 79° East 272 313 7,400 2,520 Climbing FlightAware
04:31PM 41.1080 29.0070 80° East 281 323 8,600 2,580 Climbing FlightAware
04:31PM 41.1120 29.0550 84° East 294 338 9,800 2,460 Climbing FlightAware
04:32PM 41.1050 29.0750 115° Southeast 293 337 10,300 1,860 Climbing FlightAware
04:32PM 41.0850 29.0960 142° Southeast 313 360 10,700 1,920 Climbing FlightAware
04:33PM 41.0350 29.1340 150° Southeast 325 374 12,100 2,100 Climbing FlightAware
04:33PM 40.9830 29.1760 149° Southeast 340 391 13,600 2,100 Climbing FlightAware
04:34PM 40.9240 29.2240 148° Southeast 359 413 14,900 2,160 Climbing FlightAware
04:35PM 40.8680 29.2700 148° Southeast 364 419 16,500 2,280 Climbing FlightAware
04:35PM 40.7960 29.3270 149° Southeast 377 434 18,100 2,100 Climbing FlightAware
04:36PM 40.7440 29.3690 149° Southeast 382 440 19,300 2,220 Climbing FlightAware
04:37PM 40.6800 29.4210 148° Southeast 379 436 20,900 1,980 Climbing FlightAware
04:37PM 40.6190 29.4700 149° Southeast 395 455 22,000 1,500 Climbing FlightAware
04:38PM 40.5550 29.5210 149° Southeast 397 457 23,100 1,560 Climbing FlightAware
04:39PM 40.4820 29.5790 149° Southeast 413 475 24,200 1,620 Climbing FlightAware
04:39PM 40.4320 29.6110 154° Southeast 401 461 25,000 1,500 Climbing FlightAware
04:40PM 40.3640 29.6080 182° South 388 447 26,000 1,560 Climbing FlightAware
04:41PM 40.2690 29.6100 179° South 414 476 27,400 1,500 Climbing FlightAware
04:42PM 40.1880 29.6780 147° Southeast 430 495 28,500 1,260 Climbing FlightAware
04:42PM 40.1250 29.7370 144° Southeast 436 502 29,200 1,020 Climbing FlightAware
04:43PM 40.0510 29.8060 144° Southeast 439 505 29,900 900 Climbing FlightAware
04:44PM 39.9820 29.8710 144° Southeast 439 505 30,600 720 Climbing FlightAware
04:44PM 39.9120 29.9360 145° Southeast 440 506 31,000 300 Climbing FlightAware
04:45PM 39.8510 29.9930 144° Southeast 460 529 31,000  Level FlightAware
04:46PM 39.7810 30.0590 144° Southeast 460 529 31,000  Level FlightAware
04:46PM 39.7060 30.1280 145° Southeast 459 528 31,000  Level FlightAware
04:47PM 39.6130 30.2140 145° Southeast 459 528 31,000  Level FlightAware
04:48PM 39.5290 30.2920 144° Southeast 454 522 31,000  Level FlightAware
04:49PM 39.4570 30.3570 145° Southeast 456 525 31,000 60 Level FlightAware
04:50PM 39.3650 30.4530 141° Southeast 466 536 31,100  Climbing FlightAware
04:50PM 39.2780 30.5570 137° Southeast 463 533 31,000 -60 Descending FlightAware
04:51PM 39.2060 30.6450 137° Southeast 463 533 31,000  Level FlightAware
04:52PM 39.1350 30.7260 138° Southeast 462 532 31,000  Level FlightAware
04:53PM 39.0630 30.8110 137° Southeast 464 534 31,000  Level FlightAware
04:54PM 38.9840 30.9060 137° Southeast 464 534 31,000  Level FlightAware
04:54PM 38.9270 30.9710 138° Southeast 465 535 31,000  Level FlightAware
04:55PM 38.8620 31.0480 137° Southeast 464 534 31,000 60 Level FlightAware
04:56PM 38.7830 31.1390 138° Southeast 462 532 31,100  Climbing FlightAware
04:57PM 38.6770 31.2640 137° Southeast 462 532 31,000 -60 Descending FlightAware
04:58PM 38.5900 31.3620 139° Southeast 460 529 31,000  Level FlightAware
04:58PM 38.5330 31.4280 138° Southeast 459 528 31,000  Level FlightAware
04:59PM 38.4590 31.5130 138° Southeast 459 528 31,000  Level FlightAware
05:00PM 38.4010 31.5800 138° Southeast 458 527 31,000  Level FlightAware
05:00PM 38.3290 31.6630 138° Southeast 460 529 31,000  Level FlightAware
05:01PM 38.2610 31.7410 138° Southeast 460 529 31,000  Level FlightAware
05:02PM 38.1730 31.8390 139° Southeast 462 532 31,000  Level FlightAware
05:03PM 38.1070 31.9140 138° Southeast 463 533 31,000  Level FlightAware
05:04PM 38.0280 32.0040 138° Southeast 471 542 31,000  Level FlightAware
05:04PM 37.9490 32.0940 138° Southeast 471 542 31,100  Climbing FlightAware
05:05PM 37.8600 32.1930 139° Southeast 462 532 31,000 -120 Descending FlightAware
05:06PM 37.7970 32.2640 138° Southeast 461 531 31,000  Level FlightAware
05:07PM 37.7060 32.3650 139° Southeast 459 528 31,000  Level FlightAware
05:07PM 37.6430 32.4360 138° Southeast 459 528 31,000  Level FlightAware
05:08PM 37.5720 32.5140 139° Southeast 460 529 31,000  Level FlightAware
05:09PM 37.5200 32.5720 138° Southeast 467 537 31,000  Level FlightAware
05:10PM 37.4380 32.6640 138° Southeast 468 539 31,000  Level FlightAware
05:10PM 37.3500 32.7600 139° Southeast 467 537 31,000  Level FlightAware
05:11PM 37.2930 32.8230 139° Southeast 459 528 31,000  Level FlightAware
05:12PM 37.1980 32.9270 139° Southeast 466 536 31,000  Level FlightAware
05:13PM 37.1350 32.9980 138° Southeast 466 536 31,000  Level FlightAware
05:13PM 37.0860 33.0530 138° Southeast 466 536 31,000  Level FlightAware
05:14PM 37.0190 33.1280 138° Southeast 466 536 31,000  Level FlightAware
05:15PM 36.9320 33.2180 140° Southeast 466 536 31,000  Level FlightAware
05:15PM 36.8830 33.2740 138° Southeast 466 536 31,000  Level FlightAware
05:16PM 36.8180 33.3470 138° Southeast 466 536 31,000  Level FlightAware
05:17PM 36.7680 33.4040 138° Southeast 466 536 31,000 -2,100 Level FlightAware
05:18PM 36.5540 33.3670 188° South 398 458 26,800 -3,180 Descending FlightAware
05:19PM 36.4650 33.3930 167° South 382 440 24,400 -2,460 Descending FlightAware
05:20PM 36.3870 33.4170 166° South 380 437 23,100 -1,740 Descending FlightAware
05:21PM 36.2800 33.4500 166° South 368 423 21,300 -1,200 Descending FlightAware
05:21PM 36.2190 33.4700 165° South 362 417 21,100 -180 Descending FlightAware
05:22PM 36.1700 33.4860 165° South 362 417 21,100  Level FlightAware
05:23PM 36.1070 33.5070 165° South 362 417 21,100  Level FlightAware
05:24PM 36.0410 33.5290 165° South 362 417 21,100  Level FlightAware
05:24PM 35.9900 33.5460 165° South 362 417 21,100 -2,040 Level FlightAware
05:27PM 35.7346 33.5306 183° South  Level Estimated
05:28PM 35.6219 33.5239 183° South  Level Estimated
05:29PM 35.5092 33.5172 183° South  Level Estimated
05:30PM 35.3965 33.5104 183° South  Level Estimated
05:31PM 35.2839 33.5037 183° South  Level Estimated
05:31PM 35.3270 33.7360 183° South 254 292 5,700  Level FlightAware
05:32PM 35.3010 33.7440 166° South 250 288 5,300 -1,080 Descending FlightAware
05:32PM 35.2720 33.7530 166° South 246 283 4,900 -540 Descending FlightAware
05:33PM 35.2400 33.7620 167° South 244 281 4,800 -1,080 Descending FlightAware
05:33PM 35.2650 33.7550 347° North 240 276 3,900 -1,920 Descending FlightAware
05:33PM 35.2090 33.7550 180° South 242 278 3,400 -720 Descending FlightAware
05:34PM 35.1410 33.7510 183° South 241 277 3,100 -720 Descending FlightAware
05:34PM 35.1680 33.7530 North 241 277 2,700 -660 Descending FlightAware
05:35PM 35.1060 33.7130 208° Southwest 208 239 2,700  Level FlightAware
05:35PM 35.1020 33.6920 257° West 204 235 2,700  Level FlightAware
05:36PM 35.1080 33.6470 279° West 185 213 2,700 -420 Level FlightAware
05:36PM 35.1150 33.6240 290° West 177 204 2,300 -900 Descending FlightAware
05:36PM 35.1180 33.6150 292° West 175 201 2,200 -720 Descending FlightAware
05:37PM 35.1250 33.5930 291° West 159 183 1,900 -780 Descending FlightAware
05:37PM 35.1330 33.5700 293° West 148 170 1,500 -780 Descending FlightAware
05:38PM 35.1390 33.5520 292° West 146 168 1,200 -360 Descending FlightAware
05:38PM 35.1450 33.5340 292° West 146 168 1,200  Level FlightAware
05:41PM 35.1547 33.4961 287° West  Level Estimated
05:42PM 35.1547 33.4961 22° Northeast  Level Estimated
05:43PM 35.1547 33.4961 22° Northeast  Level Estimated
05:44PM 35.1547 33.4961 22° Northeast  Level Estimated